Time;durP1;ratioP1;P1;durP2;ratioP2;P2;SDS_P1;SDS_P2;PMS_P1;PMS_P2;Temp;Humidity;BMP_temperature;BMP_pressure;BME280_temperature;BME280_humidity;BME280_pressure;Samples;Min_cycle;Max_cycle;Signal;HPM_P1;HPM_P2
2022/07/02 00:00:47;;;;;;;2.20;1.67;;;;;;;19.23;56.72;100583.41;4980239;28;20046;-76
2022/07/02 00:03:15;;;;;;;3.00;1.77;;;;;;;19.17;56.53;100589.47;4965295;28;20077;-76
2022/07/02 00:05:47;;;;;;;6.20;2.15;;;;;;;19.14;56.66;100586.31;4950043;28;20490;-76
2022/07/02 00:08:16;;;;;;;2.58;1.70;;;;;;;19.18;56.66;100583.06;4967658;28;20053;-76
2022/07/02 00:10:44;;;;;;;7.75;1.98;;;;;;;19.24;56.56;100585.09;4988349;28;20068;-76
2022/07/02 00:13:11;;;;;;;4.05;1.77;;;;;;;19.28;56.56;100586.44;4993208;28;20101;-76
2022/07/02 00:15:38;;;;;;;1.92;1.75;;;;;;;19.29;56.46;100581.88;4964380;28;20046;-76
2022/07/02 00:18:04;;;;;;;6.15;2.72;;;;;;;19.33;56.27;100582.34;4985968;28;20072;-76
2022/07/02 00:20:31;;;;;;;4.32;1.90;;;;;;;19.32;56.25;100578.81;4983009;28;20069;-76
2022/07/02 00:22:58;;;;;;;2.90;1.65;;;;;;;19.32;56.09;100586.06;4975419;28;20042;-76
2022/07/02 00:25:27;;;;;;;6.65;2.00;;;;;;;19.29;56.08;100582.72;4969413;28;20050;-76
2022/07/02 00:27:54;;;;;;;2.70;1.80;;;;;;;19.30;56.13;100580.84;4969017;28;21450;-76
2022/07/02 00:30:20;;;;;;;2.20;1.90;;;;;;;19.29;56.50;100584.56;4970142;28;20082;-75
2022/07/02 00:32:47;;;;;;;2.17;1.90;;;;;;;19.28;56.31;100577.47;4983203;28;20104;-76
2022/07/02 00:35:14;;;;;;;2.03;1.60;;;;;;;19.26;56.27;100582.22;4955759;28;20061;-78
2022/07/02 00:37:41;;;;;;;4.28;1.95;;;;;;;19.26;56.36;100582.22;4950448;28;20043;-76
2022/07/02 00:40:08;;;;;;;4.47;2.00;;;;;;;19.21;56.15;100580.06;4957467;28;20046;-77
2022/07/02 00:42:36;;;;;;;5.07;1.50;;;;;;;19.19;56.30;100587.47;4968247;28;20462;-87
2022/07/02 00:45:04;;;;;;;5.85;2.10;;;;;;;19.16;56.23;100587.81;4985858;28;20053;-87
2022/07/02 00:47:31;;;;;;;3.30;2.22;;;;;;;19.16;56.29;100585.13;4980107;28;20528;-80
2022/07/02 00:49:57;;;;;;;2.80;1.42;;;;;;;19.13;56.23;100590.00;4963724;28;20045;-80
2022/07/02 00:52:24;;;;;;;3.00;1.80;;;;;;;19.11;56.24;100587.50;4994709;28;20038;-80
2022/07/02 00:54:51;;;;;;;2.20;1.77;;;;;;;19.11;56.43;100589.31;4992543;28;20444;-80
2022/07/02 00:57:17;;;;;;;3.40;1.75;;;;;;;19.09;56.30;100593.03;4994138;28;20071;-80
2022/07/02 00:59:44;;;;;;;5.13;2.00;;;;;;;19.07;56.47;100591.53;4956619;28;20152;-87
2022/07/02 01:02:11;;;;;;;2.60;1.92;;;;;;;19.06;56.35;100593.38;4987248;28;21167;-81
2022/07/02 01:04:40;;;;;;;3.13;2.05;;;;;;;19.04;56.43;100591.88;4994604;28;20046;-81
2022/07/02 01:07:08;;;;;;;2.80;1.90;;;;;;;19.01;56.42;100590.38;4961901;28;20062;-81
2022/07/02 01:12:26;;;;;;;7.43;2.00;;;;;;;18.97;56.41;100575.56;4976174;28;20092;-81
2022/07/02 01:14:54;;;;;;;4.65;1.70;;;;;;;18.95;56.27;100587.50;4981085;28;20493;-80
2022/07/02 01:17:21;;;;;;;1.98;1.55;;;;;;;18.96;56.56;100583.84;4966054;28;20054;-80
2022/07/02 01:19:48;;;;;;;3.20;2.08;;;;;;;18.94;56.33;100583.16;4970375;28;20057;-80
2022/07/02 01:22:35;;;;;;;2.70;1.70;;;;;;;18.86;57.01;100587.53;4978297;28;20104;-80
2022/07/02 01:25:03;;;;;;;4.00;1.80;;;;;;;18.90;56.47;100579.13;4925774;28;20065;-80
2022/07/02 01:27:29;;;;;;;1.90;1.70;;;;;;;18.87;56.34;100581.13;4996400;28;20050;-80
2022/07/02 01:29:57;;;;;;;2.22;1.90;;;;;;;18.84;56.58;100583.34;4983331;28;20049;-80
2022/07/02 01:32:24;;;;;;;1.90;1.70;;;;;;;18.81;56.52;100581.00;4977049;28;20068;-80
2022/07/02 01:34:53;;;;;;;2.55;1.70;;;;;;;18.82;56.62;100574.59;4968882;28;20049;-80
2022/07/02 01:37:21;;;;;;;4.45;2.33;;;;;;;18.80;56.42;100577.47;4981518;28;20096;-89
2022/07/02 01:39:48;;;;;;;4.85;1.88;;;;;;;18.79;56.64;100581.16;4980500;28;20517;-80
2022/07/02 01:42:15;;;;;;;4.25;1.90;;;;;;;18.77;56.56;100582.34;4965185;28;20390;-81
2022/07/02 01:44:43;;;;;;;3.35;1.70;;;;;;;18.72;56.52;100582.81;4985245;28;20034;-81
2022/07/02 01:47:11;;;;;;;6.47;2.15;;;;;;;18.72;56.70;100579.28;4979634;28;20406;-81
2022/07/02 01:49:38;;;;;;;4.53;1.90;;;;;;;18.70;56.79;100584.00;4975382;28;20430;-81
2022/07/02 01:52:06;;;;;;;3.45;1.73;;;;;;;18.68;56.66;100581.50;4974808;28;20058;-81
2022/07/02 01:54:33;;;;;;;4.07;1.90;;;;;;;18.68;56.71;100581.50;4947563;28;20047;-76
2022/07/02 01:57:00;;;;;;;5.10;2.03;;;;;;;18.65;56.59;100577.28;4993580;28;20057;-76
2022/07/02 01:59:27;;;;;;;3.85;1.52;;;;;;;18.62;56.55;100572.25;4983659;28;20133;-89
2022/07/02 02:01:54;;;;;;;4.30;1.60;;;;;;;18.60;56.64;100576.13;4963925;28;20061;-88
2022/07/02 02:04:21;;;;;;;2.92;2.10;;;;;;;18.60;56.64;100581.50;4986377;28;20046;-88
2022/07/02 02:06:48;;;;;;;2.45;1.90;;;;;;;18.58;56.71;100584.34;4982481;28;20058;-85
2022/07/02 02:09:15;;;;;;;5.93;1.73;;;;;;;18.56;56.71;100577.47;4985775;28;20444;-76
2022/07/02 02:11:43;;;;;;;3.38;1.95;;;;;;;18.53;56.67;100578.66;4944890;28;20097;-76
2022/07/02 02:14:10;;;;;;;4.05;1.98;;;;;;;18.49;56.90;100579.97;4951834;28;20052;-81
2022/07/02 02:16:37;;;;;;;4.22;1.92;;;;;;;18.49;56.81;100587.22;4982901;28;20052;-82
2022/07/02 02:19:04;;;;;;;2.88;1.88;;;;;;;18.47;56.71;100582.03;4983942;28;20125;-81
2022/07/02 02:21:31;;;;;;;3.38;2.17;;;;;;;18.48;56.67;100578.31;4961238;28;20438;-81
2022/07/02 02:23:58;;;;;;;2.10;1.90;;;;;;;18.46;56.74;100582.19;4978439;28;20045;-82
2022/07/02 02:26:25;;;;;;;4.72;2.00;;;;;;;18.46;56.58;100582.19;4974266;28;20042;-88
2022/07/02 02:28:53;;;;;;;4.60;2.15;;;;;;;18.42;56.74;100576.31;4983538;28;20128;-88
2022/07/02 02:31:21;;;;;;;2.10;1.60;;;;;;;18.39;56.93;100590.94;4981313;28;20788;-81
2022/07/02 02:33:48;;;;;;;5.45;1.90;;;;;;;18.37;56.81;100586.72;4984383;28;20054;-76
2022/07/02 02:36:14;;;;;;;5.13;1.85;;;;;;;18.32;56.87;100587.22;4990683;28;20092;-76
2022/07/02 02:38:46;;;;;;;3.15;2.10;;;;;;;18.34;56.93;100587.03;4952170;28;20120;-81
2022/07/02 02:41:13;;;;;;;1.70;1.60;;;;;;;18.30;56.83;100583.88;4966504;28;20542;-81
2022/07/02 02:43:40;;;;;;;3.28;1.60;;;;;;;18.29;56.79;100582.16;4969819;28;20108;-81
2022/07/02 02:46:07;;;;;;;3.05;1.83;;;;;;;18.27;56.85;100586.03;4979374;28;20116;-81
2022/07/02 02:48:35;;;;;;;3.70;1.80;;;;;;;18.26;56.91;100585.19;4956255;28;20050;-81
2022/07/02 02:51:03;;;;;;;4.78;2.08;;;;;;;18.22;56.92;100582.00;4987839;28;20104;-81
2022/07/02 02:53:31;;;;;;;5.03;1.83;;;;;;;18.23;57.07;100580.16;4976719;28;20706;-81
2022/07/02 02:55:59;;;;;;;2.00;1.80;;;;;;;18.22;56.79;100583.88;4981542;28;20049;-80
2022/07/02 02:58:26;;;;;;;3.33;1.65;;;;;;;18.21;56.66;100582.16;4999562;28;20662;-80
2022/07/02 03:00:53;;;;;;;4.53;1.73;;;;;;;18.17;56.79;100578.97;4979211;28;20049;-80
2022/07/02 03:03:20;;;;;;;2.05;1.85;;;;;;;18.16;56.85;100589.88;4969084;28;20044;-80
2022/07/02 03:05:47;;;;;;;6.50;2.10;;;;;;;18.14;57.13;100584.69;4971105;28;20497;-81
2022/07/02 03:08:14;;;;;;;12.02;2.35;;;;;;;18.10;56.82;100588.72;4977491;28;20056;-81
2022/07/02 03:10:40;;;;;;;3.72;1.80;;;;;;;18.07;57.04;100580.16;4994117;28;20108;-80
2022/07/02 03:13:07;;;;;;;5.07;1.75;;;;;;;18.04;56.92;100584.00;4978162;28;20043;-80
2022/07/02 03:15:35;;;;;;;2.90;1.85;;;;;;;17.99;57.14;100594.41;4968949;28;20050;-81
2022/07/02 03:18:02;;;;;;;4.35;1.80;;;;;;;17.97;56.84;100591.88;4987704;28;20046;-82
2022/07/02 03:20:31;;;;;;;3.25;1.98;;;;;;;17.95;57.09;100599.28;4970637;28;20136;-82
2022/07/02 03:22:58;;;;;;;3.35;1.90;;;;;;;17.93;57.26;100601.28;4967371;28;20046;-81
2022/07/02 03:25:26;;;;;;;3.90;1.55;;;;;;;17.93;57.17;100601.28;4967079;28;20053;-81
2022/07/02 03:27:56;;;;;;;3.50;2.22;;;;;;;17.90;57.13;100598.09;4996028;28;20498;-82
2022/07/02 03:30:23;;;;;;;4.03;1.88;;;;;;;17.89;57.29;100610.69;4969338;28;20050;-89
2022/07/02 03:32:49;;;;;;;2.40;1.70;;;;;;;17.89;57.44;100609.84;4989037;28;20045;-89
2022/07/02 03:35:16;;;;;;;6.00;2.17;;;;;;;17.86;57.55;100611.03;4981287;28;20050;-76
2022/07/02 03:37:43;;;;;;;2.05;1.88;;;;;;;17.82;57.67;100611.50;4985894;28;20506;-76
2022/07/02 03:40:10;;;;;;;7.15;1.90;;;;;;;17.81;57.63;100610.66;4979494;28;20128;-77
2022/07/02 03:42:37;;;;;;;2.08;1.70;;;;;;;17.82;57.57;100614.19;4966733;28;20508;-82
2022/07/02 03:45:04;;;;;;;3.55;1.75;;;;;;;17.82;57.66;100615.03;4952587;28;20050;-82
2022/07/02 03:47:31;;;;;;;3.35;1.88;;;;;;;17.96;58.17;100611.72;4993842;28;20046;-82
2022/07/02 03:49:58;;;;;;;5.25;2.10;;;;;;;18.46;58.05;100609.06;4983000;28;20516;-82
2022/07/02 03:52:24;;;;;;;7.55;2.13;;;;;;;18.97;57.46;100613.25;4980184;28;20088;-82
2022/07/02 03:54:51;;;;;;;2.53;1.75;;;;;;;19.22;56.19;100614.03;4951186;28;20049;-82
2022/07/02 03:57:24;;;;;;;2.58;1.80;;;;;;;19.30;54.53;100602.38;4981401;28;20105;-81
2022/07/02 04:04:40;;;;;;;4.63;2.20;;;;;;;19.46;54.60;100613.13;4991578;28;20188;-91
2022/07/02 04:07:08;;;;;;;4.13;2.03;;;;;;;19.49;54.36;100610.06;4965517;28;20516;-80
2022/07/02 04:09:35;;;;;;;2.58;2.10;;;;;;;19.53;54.31;100605.16;4981278;28;20049;-80
2022/07/02 04:12:01;;;;;;;5.90;2.30;;;;;;;19.55;54.29;100608.53;4962100;28;20082;-80
2022/07/02 04:14:28;;;;;;;3.70;2.13;;;;;;;19.60;54.23;100611.53;4977796;28;20057;-80
2022/07/02 04:16:55;;;;;;;4.25;1.98;;;;;;;19.61;54.11;100610.50;4986926;28;20056;-80
2022/07/02 04:23:31;;;;;;;5.75;1.85;;;;;;;19.70;54.27;100604.09;4946116;28;20034;-89
2022/07/02 04:25:57;;;;;;;2.47;2.03;;;;;;;19.73;54.41;100614.53;4980344;28;20053;-89
2022/07/02 04:28:25;;;;;;;3.05;1.95;;;;;;;19.76;54.29;100607.09;4981448;28;20053;-85
2022/07/02 04:30:52;;;;;;;3.85;2.00;;;;;;;19.78;53.74;100605.06;4995980;28;20041;-82
2022/07/02 04:33:19;;;;;;;3.15;2.15;;;;;;;19.76;53.75;100605.25;4995807;28;20120;-82
2022/07/02 04:35:45;;;;;;;11.20;2.72;;;;;;;19.82;53.59;100609.94;4960947;28;20359;-82
2022/07/02 04:38:12;;;;;;;7.22;2.15;;;;;;;19.87;53.91;100604.00;4964453;28;20378;-82
2022/07/02 04:40:39;;;;;;;3.17;1.98;;;;;;;19.95;53.53;100614.75;4980297;28;20037;-82
2022/07/02 04:43:05;;;;;;;5.07;1.88;;;;;;;19.95;53.68;100610.19;4966845;28;20049;-82
2022/07/02 04:45:32;;;;;;;4.85;2.65;;;;;;;20.03;53.31;100614.69;4996931;28;20061;-82
2022/07/02 04:47:59;;;;;;;3.80;2.22;;;;;;;20.07;53.19;100613.31;4983508;28;20061;-82
2022/07/02 04:50:26;;;;;;;5.28;2.40;;;;;;;20.08;52.92;100619.56;4977981;28;20042;-81
2022/07/02 04:52:52;;;;;;;2.05;1.92;;;;;;;19.99;52.88;100612.53;4988579;28;20053;-80
2022/07/02 04:55:19;;;;;;;4.75;2.28;;;;;;;19.95;53.10;100610.19;4976155;28;20434;-81
2022/07/02 04:57:45;;;;;;;3.25;2.25;;;;;;;19.92;53.38;100607.88;4995955;28;20042;-82
2022/07/02 05:00:13;;;;;;;3.58;2.20;;;;;;;19.85;53.22;100611.44;4962848;28;20093;-82
2022/07/02 05:02:39;;;;;;;3.53;2.20;;;;;;;19.77;53.63;100606.94;4993496;28;20540;-78
2022/07/02 05:05:06;;;;;;;3.60;2.08;;;;;;;19.70;53.87;100612.19;4953978;28;20041;-77
2022/07/02 05:07:33;;;;;;;2.42;2.15;;;;;;;19.65;53.98;100619.09;4978249;28;20044;-77
2022/07/02 05:10:00;;;;;;;2.92;2.20;;;;;;;19.49;53.81;100612.75;4961453;28;20057;-81
2022/07/02 05:12:26;;;;;;;4.72;2.28;;;;;;;19.37;54.09;100613.31;4981212;28;20136;-77
2022/07/02 05:14:53;;;;;;;2.50;2.20;;;;;;;19.29;54.23;100619.56;4954073;28;20046;-77
2022/07/02 05:17:20;;;;;;;3.92;2.25;;;;;;;19.19;54.51;100625.16;4954041;28;20042;-90
2022/07/02 05:19:46;;;;;;;3.40;2.22;;;;;;;19.17;54.64;100616.41;4979146;28;20053;-89
2022/07/02 05:22:14;;;;;;;2.88;2.30;;;;;;;19.13;55.08;100616.91;4955840;28;20496;-87
2022/07/02 05:24:41;;;;;;;3.58;2.30;;;;;;;19.14;55.57;100616.75;4975332;28;20061;-84
2022/07/02 05:27:08;;;;;;;6.65;2.63;;;;;;;19.12;55.62;100616.06;4984582;28;20053;-82
2022/07/02 05:29:35;;;;;;;5.07;2.25;;;;;;;19.09;55.37;100619.94;4964919;28;20042;-82
2022/07/02 05:32:02;;;;;;;4.45;2.30;;;;;;;19.05;55.53;100615.06;4943946;28;20525;-81
2022/07/02 05:34:29;;;;;;;4.90;2.15;;;;;;;19.04;55.64;100610.72;4984280;28;20505;-82
2022/07/02 05:36:55;;;;;;;6.22;2.20;;;;;;;19.04;55.99;100611.56;4944173;28;20108;-82
2022/07/02 05:39:22;;;;;;;12.07;2.60;;;;;;;19.03;55.69;100611.72;4992089;28;20056;-81
2022/07/02 05:41:49;;;;;;;6.53;2.10;;;;;;;19.04;55.85;100613.41;4994227;28;20108;-82
2022/07/02 05:44:16;;;;;;;4.85;2.17;;;;;;;19.06;56.11;100617.63;4975834;28;20124;-82
2022/07/02 05:46:43;;;;;;;3.55;1.85;;;;;;;19.06;56.00;100616.78;4982249;28;20054;-82
2022/07/02 05:49:09;;;;;;;3.55;2.35;;;;;;;19.04;56.34;100618.78;4983109;28;20110;-82
2022/07/02 05:51:36;;;;;;;5.63;2.30;;;;;;;19.07;56.58;100618.44;4977632;28;20047;-82
2022/07/02 05:54:03;;;;;;;4.75;2.30;;;;;;;19.08;56.42;100618.28;4967399;28;20448;-83
2022/07/02 05:56:30;;;;;;;4.10;1.90;;;;;;;19.11;56.52;100618.94;4978682;28;20042;-77
2022/07/02 05:58:57;;;;;;;3.35;2.20;;;;;;;19.13;56.66;100619.59;4966699;28;20061;-82
2022/07/02 06:01:27;;;;;;;4.90;2.33;;;;;;;19.16;56.84;100619.25;5001956;28;20046;-82
2022/07/02 06:03:54;;;;;;;4.35;2.17;;;;;;;19.17;56.85;100608.31;4997184;28;20057;-81
2022/07/02 06:09:07;;;;;;;4.28;2.30;;;;;;;19.19;57.03;100616.25;4982182;28;20084;-81
2022/07/02 06:11:34;;;;;;;3.28;2.20;;;;;;;19.18;57.38;100618.06;4998918;28;20046;-81
2022/07/02 06:14:01;;;;;;;5.47;2.30;;;;;;;19.19;57.01;100619.75;4978628;28;20039;-81
2022/07/02 06:16:29;;;;;;;8.50;2.20;;;;;;;19.20;57.32;100618.75;4980312;28;20038;-82
2022/07/02 06:18:56;;;;;;;4.10;2.17;;;;;;;19.21;57.38;100617.75;4972162;28;20042;-82
2022/07/02 06:21:23;;;;;;;3.47;2.28;;;;;;;19.26;57.53;100622.63;4989040;28;20096;-82
2022/07/02 06:23:49;;;;;;;3.42;2.15;;;;;;;19.24;57.50;100614.69;4996404;28;20061;-82
2022/07/02 06:26:16;;;;;;;3.72;2.35;;;;;;;19.30;57.46;100623.94;4985474;28;20042;-76
2022/07/02 06:28:43;;;;;;;4.80;2.50;;;;;;;19.32;57.63;100619.22;4947667;28;20043;-76
2022/07/02 06:31:09;;;;;;;4.30;2.40;;;;;;;19.38;57.56;100615.81;4963675;28;20043;-81
2022/07/02 06:33:39;;;;;;;4.00;2.10;;;;;;;19.39;57.67;100611.28;4951556;28;20038;-82
2022/07/02 06:36:07;;;;;;;4.53;2.00;;;;;;;19.41;58.15;100618.19;4964847;28;20405;-82
2022/07/02 06:38:34;;;;;;;3.80;2.20;;;;;;;19.47;58.09;100617.47;4991855;28;20371;-82
2022/07/02 06:41:00;;;;;;;5.18;2.42;;;;;;;19.47;57.96;100614.78;4997324;28;20057;-82
2022/07/02 06:43:27;;;;;;;4.38;2.20;;;;;;;19.50;58.97;100617.13;4998035;28;20049;-82
2022/07/02 06:45:54;;;;;;;4.30;2.15;;;;;;;19.52;58.79;100625.88;4971771;28;20096;-81
2022/07/02 06:48:21;;;;;;;6.32;2.13;;;;;;;19.59;58.67;100620.63;4981120;28;20046;-82
2022/07/02 06:50:47;;;;;;;2.47;2.13;;;;;;;19.61;58.83;100623.97;4987910;28;20049;-82
2022/07/02 06:53:15;;;;;;;3.20;1.83;;;;;;;19.58;59.51;100618.94;4986997;28;20412;-87
2022/07/02 06:55:42;;;;;;;2.40;1.75;;;;;;;19.57;59.78;100619.13;4972021;28;20056;-87
2022/07/02 06:58:08;;;;;;;4.55;2.00;;;;;;;19.59;59.79;100615.25;4982463;28;20097;-81
2022/07/02 07:00:35;;;;;;;2.88;2.08;;;;;;;19.66;59.61;100615.38;4966229;28;20055;-81
2022/07/02 07:03:03;;;;;;;9.35;2.10;;;;;;;19.66;60.20;100624.28;4975319;28;20038;-81
2022/07/02 07:05:32;;;;;;;4.55;1.75;;;;;;;19.69;60.08;100618.59;4985392;28;20046;-81
2022/07/02 07:07:58;;;;;;;3.08;2.10;;;;;;;19.69;60.20;100624.00;4984815;28;20038;-80
2022/07/02 07:10:25;;;;;;;4.93;2.38;;;;;;;19.75;60.82;100619.75;5006494;28;20116;-80
2022/07/02 07:12:52;;;;;;;3.05;2.15;;;;;;;19.76;61.57;100625.97;4992068;28;20473;-80
2022/07/02 07:15:18;;;;;;;3.88;1.83;;;;;;;19.84;61.14;100628.63;4961398;28;20482;-80
2022/07/02 07:17:45;;;;;;;2.78;2.10;;;;;;;19.85;60.95;100616.84;4994706;28;20056;-80
2022/07/02 07:20:16;;;;;;;4.50;1.80;;;;;;;19.87;61.05;100612.94;4994770;28;20076;-84
2022/07/02 07:22:44;;;;;;;4.05;1.83;;;;;;;19.87;61.34;100621.03;4952555;28;20057;-84
2022/07/02 07:25:11;;;;;;;6.95;2.28;;;;;;;19.95;61.24;100614.75;4981806;28;20366;-78
2022/07/02 07:27:37;;;;;;;2.42;1.63;;;;;;;20.00;61.25;100617.75;4984224;28;20050;-78
2022/07/02 07:30:33;;;;;;;5.10;1.50;;;;;;;19.96;61.98;100621.81;4996609;28;20049;-78
2022/07/02 07:33:00;;;;;;;8.68;1.90;;;;;;;20.00;61.46;100616.88;4940277;28;20363;-78
2022/07/02 07:35:28;;;;;;;1.83;1.70;;;;;;;20.10;61.61;100609.44;4974494;28;20489;-78
2022/07/02 07:37:59;;;;;;;2.58;1.50;;;;;;;20.07;62.07;100617.88;4978683;28;20054;-78
2022/07/02 07:40:27;;;;;;;6.30;1.60;;;;;;;20.12;61.88;100605.56;4983707;28;20045;-84
2022/07/02 07:42:54;;;;;;;4.20;1.50;;;;;;;20.16;62.06;100603.31;4972401;28;20473;-85
2022/07/02 07:45:20;;;;;;;2.97;1.90;;;;;;;20.21;61.71;100592.84;4975023;28;20049;-84
2022/07/02 07:47:47;;;;;;;2.75;1.50;;;;;;;20.26;61.65;100590.44;4998319;28;20054;-83
2022/07/02 07:50:14;;;;;;;2.85;1.60;;;;;;;20.33;61.33;100595.97;4995503;28;20052;-84
2022/07/02 07:52:41;;;;;;;2.55;1.67;;;;;;;20.29;61.44;100592.75;4952147;28;20054;-83
2022/07/02 07:55:07;;;;;;;4.57;1.30;;;;;;;20.36;60.87;100590.19;4971461;28;20121;-82
2022/07/02 07:57:34;;;;;;;2.15;1.60;;;;;;;20.40;60.26;100586.09;4952843;28;20498;-82
2022/07/02 08:00:06;;;;;;;2.30;1.30;;;;;;;20.36;60.52;100580.22;4982233;28;20046;-83
2022/07/02 08:02:39;;;;;;;3.60;1.30;;;;;;;20.42;60.98;100581.34;4990622;28;20050;-81
2022/07/02 08:05:06;;;;;;;3.53;1.40;;;;;;;20.47;60.50;100578.13;4969355;28;20505;-83
2022/07/02 08:07:39;;;;;;;4.60;1.20;;;;;;;20.46;61.16;100580.00;4985864;28;20050;-83
2022/07/02 08:10:14;;;;;;;2.15;1.58;;;;;;;20.50;60.22;100573.19;4982486;28;20437;-81
2022/07/02 08:12:41;;;;;;;2.33;1.35;;;;;;;20.50;60.40;100572.34;4977706;28;20529;-82
2022/07/02 08:15:09;;;;;;;1.83;1.60;;;;;;;20.57;60.15;100568.78;5000242;28;20043;-76
2022/07/02 08:17:36;;;;;;;4.50;1.27;;;;;;;20.60;60.42;100571.09;4979892;28;20049;-77
2022/07/02 08:20:05;;;;;;;1.88;1.40;;;;;;;20.58;59.94;100567.78;4979277;28;20108;-76
2022/07/02 08:22:32;;;;;;;2.03;1.30;;;;;;;20.64;59.15;100568.91;4980974;28;20467;-76
2022/07/02 08:24:59;;;;;;;1.92;1.35;;;;;;;20.75;58.34;100565.72;4980810;28;20037;-81
2022/07/02 08:27:25;;;;;;;3.22;1.40;;;;;;;20.76;57.07;100563.88;4970236;28;20052;-76
2022/07/02 08:29:54;;;;;;;3.80;1.20;;;;;;;20.81;55.72;100564.16;4983533;28;20046;-77
2022/07/02 08:32:21;;;;;;;0.80;0.80;;;;;;;20.80;55.45;100562.50;4963607;28;20121;-77
2022/07/02 08:34:48;;;;;;;2.08;0.93;;;;;;;20.92;54.67;100555.63;4961818;28;20038;-77
2022/07/02 08:37:15;;;;;;;3.88;1.20;;;;;;;20.98;54.55;100554.84;4980765;28;20053;-81
2022/07/02 08:39:42;;;;;;;2.38;1.35;;;;;;;21.00;54.78;100554.69;4984129;28;20049;-81
2022/07/02 08:42:28;;;;;;;1.75;1.30;;;;;;;21.03;54.42;100555.13;4994400;28;20548;-81
2022/07/02 08:45:02;;;;;;;1.13;1.02;;;;;;;21.06;54.07;100550.41;4979533;28;20054;-78
2022/07/02 08:52:04;;;;;;;1.60;1.27;;;;;;;21.13;54.56;100551.31;4959832;28;20030;-76
2022/07/02 08:54:31;;;;;;;2.60;1.10;;;;;;;21.12;54.68;100542.41;4986548;28;20043;-76
2022/07/02 08:57:23;;;;;;;1.23;1.13;;;;;;;21.03;52.30;100543.50;4963818;28;20072;-77
2022/07/02 08:59:50;;;;;;;2.90;1.10;;;;;;;21.18;53.50;100540.81;4980396;28;20096;-79
2022/07/02 09:02:19;;;;;;;4.05;1.20;;;;;;;21.20;52.60;100541.47;4984105;28;20038;-79
2022/07/02 09:04:48;;;;;;;2.47;1.20;;;;;;;21.25;53.02;100530.91;4973967;28;20137;-86
2022/07/02 09:07:16;;;;;;;1.80;1.05;;;;;;;21.26;53.27;100540.69;4965266;28;20048;-80
2022/07/02 09:09:43;;;;;;;1.80;0.88;;;;;;;21.34;52.21;100535.19;4980622;28;20038;-83
2022/07/02 09:12:12;;;;;;;2.50;0.80;;;;;;;21.37;50.91;100533.97;4965862;28;20493;-84
2022/07/02 09:14:40;;;;;;;1.67;1.00;;;;;;;21.41;51.05;100528.03;4981302;28;20053;-83
2022/07/02 09:17:08;;;;;;;2.03;0.90;;;;;;;21.42;50.67;100523.44;4993758;28;20651;-82
2022/07/02 09:19:36;;;;;;;1.95;1.20;;;;;;;21.49;50.96;100526.25;4977716;28;20414;-81
2022/07/02 09:22:03;;;;;;;2.60;1.10;;;;;;;21.50;49.25;100520.66;4992102;28;20119;-80
2022/07/02 09:24:35;;;;;;;1.02;0.70;;;;;;;21.41;48.18;100514.50;4992011;28;20045;-81
2022/07/02 09:27:03;;;;;;;;;;;;;;;21.31;47.97;100505.84;4964336;28;20549;-80
2022/07/02 09:29:59;;;;;;;1.35;1.10;;;;;;;21.34;47.83;100493.81;4978096;28;19980;-80
2022/07/02 09:37:17;;;;;;;1.88;0.80;;;;;;;21.53;46.03;100495.13;4872270;29;20039;-77
2022/07/02 09:39:44;;;;;;;3.13;0.68;;;;;;;21.54;47.34;100499.50;4883041;29;20053;-83
2022/07/02 09:42:11;;;;;;;7.40;0.82;;;;;;;21.60;46.40;100493.31;4906827;28;20045;-79
2022/07/02 09:44:47;;;;;;;2.13;0.80;;;;;;;21.64;45.78;100502.72;4985207;28;20046;-78
2022/07/02 09:47:48;;;;;;;2.28;1.00;;;;;;;21.59;44.84;100508.69;4981123;28;20046;-78
2022/07/02 09:50:19;;;;;;;1.10;0.85;;;;;;;21.71;46.80;100497.38;4968831;28;20042;-82
2022/07/02 09:52:57;;;;;;;1.63;0.90;;;;;;;21.66;44.13;100490.69;4971932;28;20054;-85
2022/07/02 09:55:29;;;;;;;1.63;1.00;;;;;;;21.69;45.13;100486.75;5001119;28;20100;-81
2022/07/02 09:58:00;;;;;;;4.03;1.08;;;;;;;21.72;46.36;100485.53;5003210;28;20054;-82
2022/07/02 10:00:29;;;;;;;2.25;0.85;;;;;;;21.77;45.47;100486.63;4985886;28;20061;-78
2022/07/02 10:02:57;;;;;;;0.98;0.80;;;;;;;21.77;45.08;100483.91;4974380;28;20073;-77
2022/07/02 10:05:26;;;;;;;0.70;0.70;;;;;;;21.78;44.86;100480.22;5002091;28;20408;-78
2022/07/02 10:07:58;;;;;;;0.77;0.77;;;;;;;21.85;44.68;100482.94;4985223;28;20053;-80
2022/07/02 10:10:36;;;;;;;1.60;0.82;;;;;;;21.81;44.93;100471.69;4975570;28;20041;-79
2022/07/02 10:13:05;;;;;;;1.13;1.02;;;;;;;21.84;45.23;100465.06;4989290;28;20041;-77
2022/07/02 10:15:33;;;;;;;1.65;0.80;;;;;;;21.87;45.28;100470.09;4985836;28;20386;-77
2022/07/02 10:18:01;;;;;;;0.75;0.75;;;;;;;21.83;45.67;100460.69;4990749;28;20057;-77
2022/07/02 10:20:31;;;;;;;1.65;0.88;;;;;;;21.93;45.41;100460.34;4991444;28;20053;-77
2022/07/02 10:23:03;;;;;;;1.30;0.90;;;;;;;21.99;45.56;100459.59;4968089;28;20050;-77
2022/07/02 10:25:32;;;;;;;2.40;1.08;;;;;;;22.08;46.39;100461.09;4999631;28;20761;-77
2022/07/02 10:27:59;;;;;;;1.20;1.00;;;;;;;22.16;46.22;100457.41;5003022;28;20399;-77
2022/07/02 10:30:33;;;;;;;1.85;1.00;;;;;;;22.17;45.95;100465.34;4989188;28;20065;-80
2022/07/02 10:33:20;;;;;;;0.90;0.90;;;;;;;22.20;45.26;100456.03;4970811;28;20046;-78
2022/07/02 10:35:48;;;;;;;10.38;9.15;;;;;;;22.25;46.49;100454.41;4988919;28;20465;-77
2022/07/02 10:38:15;;;;;;;1.70;0.90;;;;;;;22.19;45.39;100452.50;4981619;28;20502;-76
2022/07/02 10:40:48;;;;;;;1.98;1.00;;;;;;;22.16;44.22;100447.47;4988531;28;20445;-78
2022/07/02 10:43:44;;;;;;;1.73;1.02;;;;;;;22.12;44.55;100446.16;4982080;28;20042;-77
2022/07/02 10:46:13;;;;;;;3.35;0.85;;;;;;;22.19;44.83;100448.94;4954685;28;20048;-77
2022/07/02 10:48:49;;;;;;;1.17;1.10;;;;;;;22.15;43.74;100453.06;4982185;28;20129;-78
2022/07/02 10:51:28;;;;;;;1.80;1.45;;;;;;;22.18;44.30;100445.38;4974525;28;20565;-81
2022/07/02 10:53:59;;;;;;;4.82;1.20;;;;;;;22.22;45.15;100446.69;4953257;28;20085;-79
2022/07/02 10:56:27;;;;;;;1.10;1.00;;;;;;;22.29;45.81;100444.03;4968468;28;20394;-79
2022/07/02 10:58:54;;;;;;;4.15;2.08;;;;;;;22.35;45.92;100437.84;4955816;28;20061;-79
2022/07/02 11:01:24;;;;;;;2.60;1.20;;;;;;;22.41;45.65;100426.19;4967686;28;20645;-81
2022/07/02 11:03:50;;;;;;;2.65;1.13;;;;;;;22.49;45.94;100430.63;4988403;28;20065;-80
2022/07/02 11:06:43;;;;;;;1.00;1.00;;;;;;;22.38;45.74;100436.59;4980479;28;20405;-81
2022/07/02 11:10:01;;;;;;;2.05;1.23;;;;;;;22.38;43.61;100439.31;4897549;28;20156;-81
2022/07/02 11:12:51;;;;;;;2.20;1.00;;;;;;;22.49;41.86;100431.47;4945996;28;20095;-77
2022/07/02 11:15:21;;;;;;;3.83;0.93;;;;;;;22.56;43.73;100427.97;4968678;28;20042;-78
2022/07/02 11:17:51;;;;;;;1.85;0.98;;;;;;;22.58;43.21;100418.59;4964055;28;20388;-78
2022/07/02 11:20:27;;;;;;;1.05;0.90;;;;;;;22.52;42.76;100422.97;4971232;28;20052;-77
2022/07/02 11:22:56;;;;;;;1.70;0.90;;;;;;;22.54;44.58;100411.91;4987940;28;20523;-77
2022/07/02 11:25:49;;;;;;;0.95;0.82;;;;;;;22.50;44.54;100425.03;4986582;28;20033;-76
2022/07/02 11:28:16;;;;;;;1.42;1.10;;;;;;;22.66;44.42;100421.16;4920273;28;20513;-76
2022/07/02 11:30:56;;;;;;;1.42;1.00;;;;;;;22.56;44.07;100423.38;4983467;28;20053;-77
2022/07/02 11:33:23;;;;;;;3.53;1.08;;;;;;;22.68;44.84;100415.53;4972890;28;20153;-77
2022/07/02 11:35:51;;;;;;;1.23;1.10;;;;;;;22.76;44.49;100409.94;4953150;28;20042;-81
2022/07/02 11:38:19;;;;;;;4.00;1.20;;;;;;;22.83;43.74;100418.13;4980925;28;20398;-80
2022/07/02 11:40:46;;;;;;;1.17;1.00;;;;;;;22.85;43.53;100411.47;4999044;28;20099;-81
2022/07/02 11:43:16;;;;;;;1.77;1.02;;;;;;;22.90;42.33;100402.72;4991431;28;20421;-84
2022/07/02 11:45:44;;;;;;;2.15;0.93;;;;;;;22.87;43.27;100392.28;4966079;28;20386;-83
2022/07/02 11:48:21;;;;;;;1.92;1.08;;;;;;;22.82;42.87;100390.22;4979370;28;20103;-83
2022/07/02 11:50:56;;;;;;;1.05;0.90;;;;;;;22.86;42.91;100383.34;4971479;28;20121;-84
2022/07/02 11:53:23;;;;;;;1.23;0.80;;;;;;;22.93;42.91;100377.94;4982922;28;20134;-79
2022/07/02 11:55:50;;;;;;;1.83;1.00;;;;;;;23.00;42.69;100377.97;4966630;28;20478;-84